sensor_id;sensor_type;location;lat;lon;timestamp;P1;durP1;ratioP1;P2;durP2;ratioP2
8710;SDS011;4392;47.400;8.062;2022-07-06T00:01:09;35.87;;;33.80;;
8710;SDS011;4392;47.400;8.062;2022-07-06T00:03:35;37.87;;;35.57;;
8710;SDS011;4392;47.400;8.062;2022-07-06T00:06:02;39.93;;;37.40;;
8710;SDS011;4392;47.400;8.062;2022-07-06T00:08:27;41.03;;;38.53;;
8710;SDS011;4392;47.400;8.062;2022-07-06T00:10:53;36.77;;;34.67;;
8710;SDS011;4392;47.400;8.062;2022-07-06T00:13:19;37.40;;;35.30;;
8710;SDS011;4392;47.400;8.062;2022-07-06T00:15:45;35.37;;;33.57;;
8710;SDS011;4392;47.400;8.062;2022-07-06T00:18:12;36.37;;;34.17;;
8710;SDS011;4392;47.400;8.062;2022-07-06T00:20:38;35.90;;;33.97;;
8710;SDS011;4392;47.400;8.062;2022-07-06T00:23:04;34.27;;;32.37;;
8710;SDS011;4392;47.400;8.062;2022-07-06T00:25:32;32.93;;;31.33;;
8710;SDS011;4392;47.400;8.062;2022-07-06T00:27:57;34.13;;;32.30;;
8710;SDS011;4392;47.400;8.062;2022-07-06T00:30:23;33.13;;;31.47;;
8710;SDS011;4392;47.400;8.062;2022-07-06T00:32:49;33.37;;;31.77;;
8710;SDS011;4392;47.400;8.062;2022-07-06T00:35:15;32.40;;;30.97;;
8710;SDS011;4392;47.400;8.062;2022-07-06T00:37:41;32.23;;;30.63;;
8710;SDS011;4392;47.400;8.062;2022-07-06T00:40:06;32.93;;;31.33;;
8710;SDS011;4392;47.400;8.062;2022-07-06T00:42:43;32.47;;;30.97;;
8710;SDS011;4392;47.400;8.062;2022-07-06T00:45:11;32.73;;;31.23;;
8710;SDS011;4392;47.400;8.062;2022-07-06T00:47:37;32.67;;;31.07;;
8710;SDS011;4392;47.400;8.062;2022-07-06T00:50:04;31.97;;;30.57;;
8710;SDS011;4392;47.400;8.062;2022-07-06T00:52:47;32.57;;;31.00;;
8710;SDS011;4392;47.400;8.062;2022-07-06T00:55:15;32.43;;;31.00;;
8710;SDS011;4392;47.400;8.062;2022-07-06T00:57:43;75.60;;;67.70;;
8710;SDS011;4392;47.400;8.062;2022-07-06T01:00:10;43.00;;;40.07;;
8710;SDS011;4392;47.400;8.062;2022-07-06T01:02:38;39.33;;;36.93;;
8710;SDS011;4392;47.400;8.062;2022-07-06T01:05:04;36.67;;;34.67;;
8710;SDS011;4392;47.400;8.062;2022-07-06T01:07:33;38.90;;;36.30;;
8710;SDS011;4392;47.400;8.062;2022-07-06T01:09:59;40.57;;;37.53;;
8710;SDS011;4392;47.400;8.062;2022-07-06T01:12:26;40.87;;;37.60;;
8710;SDS011;4392;47.400;8.062;2022-07-06T01:14:52;38.10;;;35.50;;
8710;SDS011;4392;47.400;8.062;2022-07-06T01:17:18;38.47;;;35.87;;
8710;SDS011;4392;47.400;8.062;2022-07-06T01:19:47;37.37;;;34.97;;
8710;SDS011;4392;47.400;8.062;2022-07-06T01:22:12;37.07;;;34.73;;
8710;SDS011;4392;47.400;8.062;2022-07-06T01:24:38;37.60;;;35.07;;
8710;SDS011;4392;47.400;8.062;2022-07-06T01:27:04;37.77;;;35.30;;
8710;SDS011;4392;47.400;8.062;2022-07-06T01:29:31;55.70;;;50.77;;
8710;SDS011;4392;47.400;8.062;2022-07-06T01:31:57;56.57;;;51.27;;
8710;SDS011;4392;47.400;8.062;2022-07-06T01:34:26;44.07;;;40.67;;
8710;SDS011;4392;47.400;8.062;2022-07-06T01:36:52;46.33;;;42.60;;
8710;SDS011;4392;47.400;8.062;2022-07-06T01:39:18;45.80;;;42.20;;
8710;SDS011;4392;47.400;8.062;2022-07-06T01:41:45;51.43;;;47.00;;
8710;SDS011;4392;47.400;8.062;2022-07-06T01:44:11;41.63;;;38.53;;
8710;SDS011;4392;47.400;8.062;2022-07-06T01:46:36;44.77;;;41.37;;
8710;SDS011;4392;47.400;8.062;2022-07-06T01:49:03;38.63;;;36.13;;
8710;SDS011;4392;47.400;8.062;2022-07-06T01:51:31;38.10;;;35.27;;
8710;SDS011;4392;47.400;8.062;2022-07-06T01:53:57;71.43;;;64.13;;
8710;SDS011;4392;47.400;8.062;2022-07-06T01:56:23;98.90;;;88.07;;
8710;SDS011;4392;47.400;8.062;2022-07-06T01:58:50;54.17;;;49.50;;
8710;SDS011;4392;47.400;8.062;2022-07-06T02:01:17;71.47;;;64.07;;
8710;SDS011;4392;47.400;8.062;2022-07-06T02:03:44;86.70;;;77.87;;
8710;SDS011;4392;47.400;8.062;2022-07-06T02:06:11;64.60;;;58.30;;
8710;SDS011;4392;47.400;8.062;2022-07-06T02:08:37;44.10;;;41.00;;
8710;SDS011;4392;47.400;8.062;2022-07-06T02:11:04;39.13;;;36.73;;
8710;SDS011;4392;47.400;8.062;2022-07-06T02:13:31;34.97;;;33.07;;
8710;SDS011;4392;47.400;8.062;2022-07-06T02:16:01;34.43;;;32.47;;
8710;SDS011;4392;47.400;8.062;2022-07-06T02:18:27;34.03;;;32.13;;
8710;SDS011;4392;47.400;8.062;2022-07-06T02:20:53;33.37;;;31.37;;
8710;SDS011;4392;47.400;8.062;2022-07-06T02:23:19;32.57;;;30.77;;
8710;SDS011;4392;47.400;8.062;2022-07-06T02:25:45;33.43;;;31.73;;
8710;SDS011;4392;47.400;8.062;2022-07-06T02:28:11;32.90;;;31.00;;
8710;SDS011;4392;47.400;8.062;2022-07-06T02:30:39;33.57;;;31.53;;
8710;SDS011;4392;47.400;8.062;2022-07-06T02:33:05;32.73;;;31.03;;
8710;SDS011;4392;47.400;8.062;2022-07-06T02:35:30;32.70;;;31.07;;
8710;SDS011;4392;47.400;8.062;2022-07-06T02:37:56;32.33;;;30.80;;
8710;SDS011;4392;47.400;8.062;2022-07-06T02:40:22;33.07;;;31.13;;
8710;SDS011;4392;47.400;8.062;2022-07-06T02:42:48;31.80;;;30.27;;
8710;SDS011;4392;47.400;8.062;2022-07-06T02:45:13;32.93;;;31.13;;
8710;SDS011;4392;47.400;8.062;2022-07-06T02:47:39;32.30;;;30.50;;
8710;SDS011;4392;47.400;8.062;2022-07-06T02:50:05;133.27;;;102.50;;
8710;SDS011;4392;47.400;8.062;2022-07-06T02:52:34;70.57;;;63.27;;
8710;SDS011;4392;47.400;8.062;2022-07-06T02:55:04;158.87;;;128.77;;
8710;SDS011;4392;47.400;8.062;2022-07-06T02:57:30;86.30;;;77.20;;
8710;SDS011;4392;47.400;8.062;2022-07-06T02:59:55;57.07;;;52.10;;
8710;SDS011;4392;47.400;8.062;2022-07-06T03:02:21;44.83;;;41.30;;
8710;SDS011;4392;47.400;8.062;2022-07-06T03:04:47;40.03;;;37.33;;
8710;SDS011;4392;47.400;8.062;2022-07-06T03:07:12;38.03;;;35.40;;
8710;SDS011;4392;47.400;8.062;2022-07-06T03:09:38;36.03;;;33.67;;
8710;SDS011;4392;47.400;8.062;2022-07-06T03:12:04;37.50;;;35.00;;
8710;SDS011;4392;47.400;8.062;2022-07-06T03:14:30;38.57;;;35.93;;
8710;SDS011;4392;47.400;8.062;2022-07-06T03:16:57;36.93;;;34.57;;
8710;SDS011;4392;47.400;8.062;2022-07-06T03:19:23;35.80;;;33.60;;
8710;SDS011;4392;47.400;8.062;2022-07-06T03:21:49;35.77;;;33.60;;
8710;SDS011;4392;47.400;8.062;2022-07-06T03:24:14;35.30;;;33.20;;
8710;SDS011;4392;47.400;8.062;2022-07-06T03:26:40;34.23;;;32.23;;
8710;SDS011;4392;47.400;8.062;2022-07-06T03:29:06;33.27;;;31.53;;
8710;SDS011;4392;47.400;8.062;2022-07-06T03:31:32;34.50;;;32.40;;
8710;SDS011;4392;47.400;8.062;2022-07-06T03:33:57;34.60;;;32.60;;
8710;SDS011;4392;47.400;8.062;2022-07-06T03:36:23;126.47;;;96.63;;
8710;SDS011;4392;47.400;8.062;2022-07-06T03:38:49;93.47;;;80.20;;
8710;SDS011;4392;47.400;8.062;2022-07-06T03:41:15;47.50;;;43.40;;
8710;SDS011;4392;47.400;8.062;2022-07-06T03:43:40;41.73;;;38.63;;
8710;SDS011;4392;47.400;8.062;2022-07-06T03:46:06;35.97;;;33.67;;
8710;SDS011;4392;47.400;8.062;2022-07-06T03:48:34;35.07;;;32.90;;
8710;SDS011;4392;47.400;8.062;2022-07-06T03:51:00;55.70;;;50.57;;
8710;SDS011;4392;47.400;8.062;2022-07-06T03:53:25;102.43;;;90.80;;
8710;SDS011;4392;47.400;8.062;2022-07-06T03:55:51;51.50;;;47.10;;
8710;SDS011;4392;47.400;8.062;2022-07-06T03:58:36;41.27;;;38.47;;
8710;SDS011;4392;47.400;8.062;2022-07-06T04:01:01;35.27;;;33.17;;
8710;SDS011;4392;47.400;8.062;2022-07-06T04:03:27;33.07;;;31.37;;
8710;SDS011;4392;47.400;8.062;2022-07-06T04:05:55;32.17;;;30.40;;
8710;SDS011;4392;47.400;8.062;2022-07-06T04:08:20;31.53;;;30.07;;
8710;SDS011;4392;47.400;8.062;2022-07-06T04:10:46;32.30;;;30.83;;
8710;SDS011;4392;47.400;8.062;2022-07-06T04:13:12;32.53;;;30.73;;
8710;SDS011;4392;47.400;8.062;2022-07-06T04:15:38;31.47;;;29.87;;
8710;SDS011;4392;47.400;8.062;2022-07-06T04:18:04;32.33;;;30.80;;
8710;SDS011;4392;47.400;8.062;2022-07-06T04:20:30;31.80;;;30.30;;
8710;SDS011;4392;47.400;8.062;2022-07-06T04:22:58;31.57;;;30.03;;
8710;SDS011;4392;47.400;8.062;2022-07-06T04:25:24;31.37;;;29.77;;
8710;SDS011;4392;47.400;8.062;2022-07-06T04:27:50;31.73;;;30.33;;
8710;SDS011;4392;47.400;8.062;2022-07-06T04:30:16;31.17;;;29.77;;
8710;SDS011;4392;47.400;8.062;2022-07-06T04:32:41;31.47;;;30.03;;
8710;SDS011;4392;47.400;8.062;2022-07-06T04:35:07;31.63;;;30.20;;
8710;SDS011;4392;47.400;8.062;2022-07-06T04:37:33;31.77;;;30.30;;
8710;SDS011;4392;47.400;8.062;2022-07-06T04:39:59;31.50;;;29.77;;
8710;SDS011;4392;47.400;8.062;2022-07-06T04:42:25;31.37;;;29.73;;
8710;SDS011;4392;47.400;8.062;2022-07-06T04:44:50;32.13;;;30.57;;
8710;SDS011;4392;47.400;8.062;2022-07-06T04:47:16;31.77;;;30.10;;
8710;SDS011;4392;47.400;8.062;2022-07-06T04:49:43;31.20;;;29.80;;
8710;SDS011;4392;47.400;8.062;2022-07-06T04:52:09;31.40;;;30.00;;
8710;SDS011;4392;47.400;8.062;2022-07-06T04:54:34;31.27;;;29.70;;
8710;SDS011;4392;47.400;8.062;2022-07-06T04:57:03;31.73;;;30.10;;
8710;SDS011;4392;47.400;8.062;2022-07-06T04:59:29;31.30;;;29.90;;
8710;SDS011;4392;47.400;8.062;2022-07-06T05:01:54;31.53;;;30.03;;
8710;SDS011;4392;47.400;8.062;2022-07-06T05:04:20;31.20;;;29.80;;
8710;SDS011;4392;47.400;8.062;2022-07-06T05:06:47;31.47;;;30.07;;
8710;SDS011;4392;47.400;8.062;2022-07-06T05:09:12;31.27;;;29.87;;
8710;SDS011;4392;47.400;8.062;2022-07-06T05:11:38;31.37;;;29.97;;
8710;SDS011;4392;47.400;8.062;2022-07-06T05:14:04;31.17;;;29.70;;
8710;SDS011;4392;47.400;8.062;2022-07-06T05:16:31;31.53;;;30.03;;
8710;SDS011;4392;47.400;8.062;2022-07-06T05:18:57;31.10;;;29.43;;
8710;SDS011;4392;47.400;8.062;2022-07-06T05:21:23;31.67;;;30.17;;
8710;SDS011;4392;47.400;8.062;2022-07-06T05:23:49;30.70;;;29.20;;
8710;SDS011;4392;47.400;8.062;2022-07-06T05:26:15;31.33;;;29.77;;
8710;SDS011;4392;47.400;8.062;2022-07-06T05:28:41;31.13;;;29.63;;
8710;SDS011;4392;47.400;8.062;2022-07-06T05:31:06;31.33;;;29.83;;
8710;SDS011;4392;47.400;8.062;2022-07-06T05:33:34;31.13;;;29.83;;
8710;SDS011;4392;47.400;8.062;2022-07-06T05:36:00;31.57;;;29.87;;
8710;SDS011;4392;47.400;8.062;2022-07-06T05:38:26;31.20;;;29.80;;
8710;SDS011;4392;47.400;8.062;2022-07-06T05:40:51;31.60;;;30.10;;
8710;SDS011;4392;47.400;8.062;2022-07-06T05:43:17;31.13;;;29.73;;
8710;SDS011;4392;47.400;8.062;2022-07-06T05:45:43;31.80;;;30.30;;
8710;SDS011;4392;47.400;8.062;2022-07-06T05:48:09;31.27;;;29.83;;
8710;SDS011;4392;47.400;8.062;2022-07-06T05:50:54;31.87;;;30.27;;
8710;SDS011;4392;47.400;8.062;2022-07-06T05:53:19;31.47;;;30.03;;
8710;SDS011;4392;47.400;8.062;2022-07-06T05:55:45;32.03;;;30.40;;
8710;SDS011;4392;47.400;8.062;2022-07-06T05:58:12;33.17;;;31.23;;
8710;SDS011;4392;47.400;8.062;2022-07-06T06:00:38;32.63;;;31.03;;
8710;SDS011;4392;47.400;8.062;2022-07-06T06:03:03;32.33;;;30.70;;
8710;SDS011;4392;47.400;8.062;2022-07-06T06:05:29;32.20;;;30.50;;
8710;SDS011;4392;47.400;8.062;2022-07-06T06:07:55;32.00;;;30.30;;
8710;SDS011;4392;47.400;8.062;2022-07-06T06:10:20;32.80;;;31.10;;
8710;SDS011;4392;47.400;8.062;2022-07-06T06:12:50;32.27;;;30.63;;
8710;SDS011;4392;47.400;8.062;2022-07-06T06:15:16;31.83;;;30.33;;
8710;SDS011;4392;47.400;8.062;2022-07-06T06:17:42;31.67;;;30.07;;
8710;SDS011;4392;47.400;8.062;2022-07-06T06:20:09;31.90;;;30.40;;
8710;SDS011;4392;47.400;8.062;2022-07-06T06:22:55;31.63;;;30.23;;
8710;SDS011;4392;47.400;8.062;2022-07-06T06:27:55;32.40;;;30.70;;
8710;SDS011;4392;47.400;8.062;2022-07-06T06:30:20;31.83;;;30.43;;
8710;SDS011;4392;47.400;8.062;2022-07-06T06:32:46;32.37;;;30.87;;
8710;SDS011;4392;47.400;8.062;2022-07-06T06:35:12;33.60;;;31.03;;
8710;SDS011;4392;47.400;8.062;2022-07-06T06:37:38;32.93;;;31.23;;
8710;SDS011;4392;47.400;8.062;2022-07-06T06:40:04;32.27;;;30.67;;
8710;SDS011;4392;47.400;8.062;2022-07-06T06:42:31;31.80;;;30.10;;
8710;SDS011;4392;47.400;8.062;2022-07-06T06:44:57;32.13;;;30.47;;
8710;SDS011;4392;47.400;8.062;2022-07-06T06:47:22;31.63;;;30.23;;
8710;SDS011;4392;47.400;8.062;2022-07-06T06:49:48;31.73;;;30.33;;
8710;SDS011;4392;47.400;8.062;2022-07-06T06:52:14;32.47;;;30.97;;
8710;SDS011;4392;47.400;8.062;2022-07-06T06:54:40;31.77;;;30.37;;
8710;SDS011;4392;47.400;8.062;2022-07-06T06:57:06;33.10;;;31.30;;
8710;SDS011;4392;47.400;8.062;2022-07-06T06:59:34;32.30;;;30.70;;
8710;SDS011;4392;47.400;8.062;2022-07-06T07:02:02;32.17;;;30.73;;
8710;SDS011;4392;47.400;8.062;2022-07-06T07:04:28;32.63;;;31.13;;
8710;SDS011;4392;47.400;8.062;2022-07-06T07:06:55;32.50;;;30.87;;
8710;SDS011;4392;47.400;8.062;2022-07-06T07:09:21;31.87;;;30.47;;
8710;SDS011;4392;47.400;8.062;2022-07-06T07:11:47;32.00;;;30.57;;
8710;SDS011;4392;47.400;8.062;2022-07-06T07:14:13;32.10;;;30.63;;
8710;SDS011;4392;47.400;8.062;2022-07-06T07:16:38;32.47;;;30.97;;
8710;SDS011;4392;47.400;8.062;2022-07-06T07:19:06;32.07;;;30.57;;
8710;SDS011;4392;47.400;8.062;2022-07-06T07:21:35;32.33;;;30.63;;
8710;SDS011;4392;47.400;8.062;2022-07-06T07:24:01;32.43;;;30.93;;
8710;SDS011;4392;47.400;8.062;2022-07-06T07:26:26;32.10;;;30.50;;
8710;SDS011;4392;47.400;8.062;2022-07-06T07:28:52;33.00;;;31.20;;
8710;SDS011;4392;47.400;8.062;2022-07-06T07:31:23;32.23;;;30.80;;
8710;SDS011;4392;47.400;8.062;2022-07-06T07:33:49;32.63;;;31.03;;
8710;SDS011;4392;47.400;8.062;2022-07-06T07:36:14;32.40;;;31.00;;
8710;SDS011;4392;47.400;8.062;2022-07-06T07:38:40;32.17;;;30.67;;
8710;SDS011;4392;47.400;8.062;2022-07-06T07:41:06;32.17;;;30.77;;
8710;SDS011;4392;47.400;8.062;2022-07-06T07:43:31;32.67;;;31.07;;
8710;SDS011;4392;47.400;8.062;2022-07-06T07:45:57;32.67;;;30.97;;
8710;SDS011;4392;47.400;8.062;2022-07-06T07:48:23;32.73;;;31.23;;
8710;SDS011;4392;47.400;8.062;2022-07-06T07:50:49;32.93;;;31.33;;
8710;SDS011;4392;47.400;8.062;2022-07-06T07:53:16;33.33;;;31.57;;
8710;SDS011;4392;47.400;8.062;2022-07-06T07:55:42;33.27;;;31.57;;
8710;SDS011;4392;47.400;8.062;2022-07-06T07:58:08;32.83;;;31.20;;
8710;SDS011;4392;47.400;8.062;2022-07-06T08:00:34;33.33;;;31.83;;
8710;SDS011;4392;47.400;8.062;2022-07-06T08:03:00;32.50;;;30.90;;
8710;SDS011;4392;47.400;8.062;2022-07-06T08:05:26;32.13;;;30.67;;
8710;SDS011;4392;47.400;8.062;2022-07-06T08:07:51;33.63;;;31.93;;
8710;SDS011;4392;47.400;8.062;2022-07-06T08:10:17;32.87;;;31.37;;
8710;SDS011;4392;47.400;8.062;2022-07-06T08:12:43;32.60;;;31.10;;
8710;SDS011;4392;47.400;8.062;2022-07-06T08:15:09;32.53;;;30.93;;
8710;SDS011;4392;47.400;8.062;2022-07-06T08:17:35;32.77;;;31.17;;
8710;SDS011;4392;47.400;8.062;2022-07-06T08:20:01;32.70;;;31.10;;
8710;SDS011;4392;47.400;8.062;2022-07-06T08:22:26;34.73;;;32.83;;
8710;SDS011;4392;47.400;8.062;2022-07-06T08:24:54;33.13;;;31.63;;
8710;SDS011;4392;47.400;8.062;2022-07-06T08:27:20;32.97;;;31.47;;
8710;SDS011;4392;47.400;8.062;2022-07-06T08:29:46;32.23;;;30.83;;
8710;SDS011;4392;47.400;8.062;2022-07-06T08:32:15;38.73;;;36.40;;
8710;SDS011;4392;47.400;8.062;2022-07-06T08:34:40;33.37;;;31.87;;
8710;SDS011;4392;47.400;8.062;2022-07-06T08:37:09;33.57;;;31.83;;
8710;SDS011;4392;47.400;8.062;2022-07-06T08:39:35;33.70;;;32.07;;
8710;SDS011;4392;47.400;8.062;2022-07-06T08:42:00;32.63;;;31.03;;
8710;SDS011;4392;47.400;8.062;2022-07-06T08:44:27;33.10;;;31.40;;
8710;SDS011;4392;47.400;8.062;2022-07-06T08:46:57;33.07;;;31.40;;
8710;SDS011;4392;47.400;8.062;2022-07-06T08:49:24;32.83;;;31.27;;
8710;SDS011;4392;47.400;8.062;2022-07-06T08:51:53;33.17;;;31.67;;
8710;SDS011;4392;47.400;8.062;2022-07-06T08:54:19;32.93;;;31.40;;
8710;SDS011;4392;47.400;8.062;2022-07-06T08:56:47;32.40;;;30.97;;
8710;SDS011;4392;47.400;8.062;2022-07-06T08:59:16;32.30;;;30.83;;
8710;SDS011;4392;47.400;8.062;2022-07-06T09:01:42;32.83;;;31.43;;
8710;SDS011;4392;47.400;8.062;2022-07-06T09:04:09;32.80;;;31.10;;
8710;SDS011;4392;47.400;8.062;2022-07-06T09:06:40;33.57;;;31.90;;
8710;SDS011;4392;47.400;8.062;2022-07-06T09:09:08;32.73;;;31.23;;
8710;SDS011;4392;47.400;8.062;2022-07-06T09:11:37;32.83;;;31.23;;
8710;SDS011;4392;47.400;8.062;2022-07-06T09:14:03;32.73;;;31.23;;
8710;SDS011;4392;47.400;8.062;2022-07-06T09:16:29;32.80;;;31.20;;
8710;SDS011;4392;47.400;8.062;2022-07-06T09:18:57;33.27;;;31.43;;
8710;SDS011;4392;47.400;8.062;2022-07-06T09:21:32;33.23;;;31.63;;
8710;SDS011;4392;47.400;8.062;2022-07-06T09:24:01;32.70;;;31.23;;
8710;SDS011;4392;47.400;8.062;2022-07-06T09:26:33;33.50;;;31.93;;
8710;SDS011;4392;47.400;8.062;2022-07-06T09:29:00;33.47;;;31.80;;
8710;SDS011;4392;47.400;8.062;2022-07-06T09:31:26;33.47;;;31.77;;
8710;SDS011;4392;47.400;8.062;2022-07-06T09:36:38;33.00;;;31.60;;
8710;SDS011;4392;47.400;8.062;2022-07-06T09:39:17;32.90;;;31.33;;
8710;SDS011;4392;47.400;8.062;2022-07-06T09:41:43;32.67;;;31.27;;
8710;SDS011;4392;47.400;8.062;2022-07-06T09:44:09;32.50;;;31.00;;
8710;SDS011;4392;47.400;8.062;2022-07-06T09:46:41;32.37;;;30.87;;
8710;SDS011;4392;47.400;8.062;2022-07-06T09:49:08;33.37;;;31.87;;
8710;SDS011;4392;47.400;8.062;2022-07-06T09:51:37;33.20;;;31.40;;
8710;SDS011;4392;47.400;8.062;2022-07-06T09:54:06;33.33;;;31.77;;
8710;SDS011;4392;47.400;8.062;2022-07-06T09:56:37;33.07;;;31.40;;
8710;SDS011;4392;47.400;8.062;2022-07-06T09:59:23;33.37;;;31.57;;
8710;SDS011;4392;47.400;8.062;2022-07-06T10:01:51;32.40;;;30.80;;
8710;SDS011;4392;47.400;8.062;2022-07-06T10:04:21;32.70;;;31.03;;
8710;SDS011;4392;47.400;8.062;2022-07-06T10:06:48;32.67;;;31.17;;
8710;SDS011;4392;47.400;8.062;2022-07-06T10:09:14;32.77;;;31.37;;
8710;SDS011;4392;47.400;8.062;2022-07-06T10:11:42;33.70;;;32.07;;
8710;SDS011;4392;47.400;8.062;2022-07-06T10:14:15;33.03;;;31.20;;
8710;SDS011;4392;47.400;8.062;2022-07-06T10:16:45;34.07;;;32.10;;
8710;SDS011;4392;47.400;8.062;2022-07-06T10:19:13;33.57;;;31.60;;
8710;SDS011;4392;47.400;8.062;2022-07-06T10:21:40;33.10;;;31.60;;
8710;SDS011;4392;47.400;8.062;2022-07-06T10:24:06;32.93;;;31.37;;
8710;SDS011;4392;47.400;8.062;2022-07-06T10:26:40;32.83;;;31.23;;
8710;SDS011;4392;47.400;8.062;2022-07-06T10:29:09;32.57;;;31.17;;
8710;SDS011;4392;47.400;8.062;2022-07-06T10:31:35;32.93;;;31.43;;
8710;SDS011;4392;47.400;8.062;2022-07-06T10:34:09;32.93;;;31.53;;
8710;SDS011;4392;47.400;8.062;2022-07-06T10:36:40;33.37;;;31.77;;
8710;SDS011;4392;47.400;8.062;2022-07-06T10:39:07;33.10;;;31.33;;
8710;SDS011;4392;47.400;8.062;2022-07-06T10:41:53;33.43;;;31.50;;
8710;SDS011;4392;47.400;8.062;2022-07-06T10:44:26;32.90;;;31.37;;
8710;SDS011;4392;47.400;8.062;2022-07-06T10:46:56;32.93;;;31.23;;
8710;SDS011;4392;47.400;8.062;2022-07-06T10:49:25;32.73;;;31.33;;
8710;SDS011;4392;47.400;8.062;2022-07-06T10:51:52;32.50;;;31.10;;
8710;SDS011;4392;47.400;8.062;2022-07-06T10:54:18;33.23;;;31.73;;
8710;SDS011;4392;47.400;8.062;2022-07-06T10:56:46;33.10;;;31.60;;
8710;SDS011;4392;47.400;8.062;2022-07-06T10:59:23;33.83;;;32.17;;
8710;SDS011;4392;47.400;8.062;2022-07-06T11:04:39;33.13;;;31.47;;
8710;SDS011;4392;47.400;8.062;2022-07-06T11:07:12;33.33;;;31.40;;
8710;SDS011;4392;47.400;8.062;2022-07-06T11:09:39;33.13;;;31.47;;
8710;SDS011;4392;47.400;8.062;2022-07-06T11:12:16;33.47;;;31.53;;
8710;SDS011;4392;47.400;8.062;2022-07-06T11:14:46;33.00;;;31.30;;
8710;SDS011;4392;47.400;8.062;2022-07-06T11:17:13;33.03;;;31.50;;
8710;SDS011;4392;47.400;8.062;2022-07-06T11:19:49;33.80;;;32.00;;
8710;SDS011;4392;47.400;8.062;2022-07-06T11:22:19;32.50;;;30.90;;
8710;SDS011;4392;47.400;8.062;2022-07-06T11:24:45;32.73;;;30.93;;
8710;SDS011;4392;47.400;8.062;2022-07-06T11:27:14;32.40;;;30.83;;
8710;SDS011;4392;47.400;8.062;2022-07-06T11:29:39;32.50;;;31.10;;
8710;SDS011;4392;47.400;8.062;2022-07-06T11:32:06;32.83;;;31.33;;
8710;SDS011;4392;47.400;8.062;2022-07-06T11:34:37;32.80;;;30.77;;
8710;SDS011;4392;47.400;8.062;2022-07-06T11:37:06;32.03;;;30.63;;
8710;SDS011;4392;47.400;8.062;2022-07-06T11:39:41;32.70;;;31.03;;
8710;SDS011;4392;47.400;8.062;2022-07-06T11:42:09;33.03;;;31.43;;
8710;SDS011;4392;47.400;8.062;2022-07-06T11:44:36;32.70;;;31.20;;
8710;SDS011;4392;47.400;8.062;2022-07-06T11:47:03;32.70;;;31.20;;
8710;SDS011;4392;47.400;8.062;2022-07-06T11:49:30;32.67;;;31.03;;
8710;SDS011;4392;47.400;8.062;2022-07-06T11:51:56;32.53;;;31.03;;
8710;SDS011;4392;47.400;8.062;2022-07-06T11:54:23;32.90;;;31.40;;
8710;SDS011;4392;47.400;8.062;2022-07-06T11:56:51;33.30;;;31.60;;
8710;SDS011;4392;47.400;8.062;2022-07-06T11:59:22;32.77;;;31.13;;
8710;SDS011;4392;47.400;8.062;2022-07-06T12:01:49;32.43;;;30.93;;
8710;SDS011;4392;47.400;8.062;2022-07-06T12:04:23;32.67;;;31.20;;
8710;SDS011;4392;47.400;8.062;2022-07-06T12:06:49;32.53;;;30.97;;
8710;SDS011;4392;47.400;8.062;2022-07-06T12:09:15;32.90;;;31.50;;
8710;SDS011;4392;47.400;8.062;2022-07-06T12:11:43;32.67;;;30.97;;
8710;SDS011;4392;47.400;8.062;2022-07-06T12:14:18;32.90;;;31.40;;
8710;SDS011;4392;47.400;8.062;2022-07-06T12:16:45;32.97;;;31.57;;
8710;SDS011;4392;47.400;8.062;2022-07-06T12:19:13;32.77;;;31.27;;
8710;SDS011;4392;47.400;8.062;2022-07-06T12:21:43;32.00;;;30.60;;
8710;SDS011;4392;47.400;8.062;2022-07-06T12:24:26;32.83;;;31.03;;
8710;SDS011;4392;47.400;8.062;2022-07-06T12:26:55;32.40;;;30.90;;
8710;SDS011;4392;47.400;8.062;2022-07-06T12:29:23;32.50;;;30.90;;
8710;SDS011;4392;47.400;8.062;2022-07-06T12:31:50;32.60;;;31.20;;
8710;SDS011;4392;47.400;8.062;2022-07-06T12:34:21;32.23;;;30.83;;
8710;SDS011;4392;47.400;8.062;2022-07-06T12:36:55;32.80;;;31.20;;
8710;SDS011;4392;47.400;8.062;2022-07-06T12:39:28;33.23;;;31.27;;
8710;SDS011;4392;47.400;8.062;2022-07-06T12:41:55;33.53;;;31.73;;
8710;SDS011;4392;47.400;8.062;2022-07-06T12:44:28;32.23;;;30.83;;
8710;SDS011;4392;47.400;8.062;2022-07-06T12:47:04;33.53;;;32.00;;
8710;SDS011;4392;47.400;8.062;2022-07-06T12:49:30;33.67;;;31.60;;
8710;SDS011;4392;47.400;8.062;2022-07-06T12:51:58;33.33;;;31.43;;
8710;SDS011;4392;47.400;8.062;2022-07-06T12:57:44;33.50;;;31.70;;
8710;SDS011;4392;47.400;8.062;2022-07-06T13:00:13;33.43;;;31.83;;
8710;SDS011;4392;47.400;8.062;2022-07-06T13:02:43;32.33;;;30.83;;
8710;SDS011;4392;47.400;8.062;2022-07-06T13:05:11;33.23;;;31.73;;
8710;SDS011;4392;47.400;8.062;2022-07-06T13:07:43;33.33;;;31.53;;
8710;SDS011;4392;47.400;8.062;2022-07-06T13:10:13;32.53;;;31.03;;
8710;SDS011;4392;47.400;8.062;2022-07-06T13:12:40;32.87;;;31.17;;
8710;SDS011;4392;47.400;8.062;2022-07-06T13:15:06;33.10;;;31.50;;
8710;SDS011;4392;47.400;8.062;2022-07-06T13:17:33;33.03;;;31.43;;
8710;SDS011;4392;47.400;8.062;2022-07-06T13:20:00;32.80;;;31.33;;
8710;SDS011;4392;47.400;8.062;2022-07-06T13:22:26;33.97;;;31.87;;
8710;SDS011;4392;47.400;8.062;2022-07-06T13:24:51;32.67;;;30.90;;
8710;SDS011;4392;47.400;8.062;2022-07-06T13:27:17;33.40;;;31.80;;
8710;SDS011;4392;47.400;8.062;2022-07-06T13:29:45;32.70;;;31.17;;
8710;SDS011;4392;47.400;8.062;2022-07-06T13:32:11;32.80;;;31.13;;
8710;SDS011;4392;47.400;8.062;2022-07-06T13:34:37;33.20;;;31.70;;
8710;SDS011;4392;47.400;8.062;2022-07-06T13:37:03;33.00;;;31.50;;
8710;SDS011;4392;47.400;8.062;2022-07-06T13:39:30;32.40;;;31.00;;
8710;SDS011;4392;47.400;8.062;2022-07-06T13:41:56;33.13;;;31.43;;
8710;SDS011;4392;47.400;8.062;2022-07-06T13:44:22;33.03;;;31.43;;
8710;SDS011;4392;47.400;8.062;2022-07-06T13:46:49;33.23;;;31.83;;
8710;SDS011;4392;47.400;8.062;2022-07-06T13:49:15;32.73;;;31.33;;
8710;SDS011;4392;47.400;8.062;2022-07-06T13:51:42;32.97;;;31.47;;
8710;SDS011;4392;47.400;8.062;2022-07-06T13:54:08;33.07;;;31.37;;
8710;SDS011;4392;47.400;8.062;2022-07-06T13:56:34;32.93;;;31.37;;
8710;SDS011;4392;47.400;8.062;2022-07-06T13:59:00;33.17;;;31.67;;
8710;SDS011;4392;47.400;8.062;2022-07-06T14:01:25;32.53;;;31.13;;
8710;SDS011;4392;47.400;8.062;2022-07-06T14:03:51;33.70;;;32.20;;
8710;SDS011;4392;47.400;8.062;2022-07-06T14:06:19;33.10;;;31.60;;
8710;SDS011;4392;47.400;8.062;2022-07-06T14:08:45;33.70;;;32.10;;
8710;SDS011;4392;47.400;8.062;2022-07-06T14:11:11;33.42;;;31.80;;
8710;SDS011;4392;47.400;8.062;2022-07-06T14:13:37;34.80;;;32.97;;
8710;SDS011;4392;47.400;8.062;2022-07-06T14:16:04;33.78;;;32.13;;
8710;SDS011;4392;47.400;8.062;2022-07-06T14:18:30;33.73;;;32.03;;
8710;SDS011;4392;47.400;8.062;2022-07-06T14:20:58;33.70;;;32.30;;
8710;SDS011;4392;47.400;8.062;2022-07-06T14:23:25;33.40;;;32.00;;
8710;SDS011;4392;47.400;8.062;2022-07-06T14:25:54;33.72;;;32.08;;
8710;SDS011;4392;47.400;8.062;2022-07-06T14:28:22;33.75;;;32.08;;
8710;SDS011;4392;47.400;8.062;2022-07-06T14:30:49;33.65;;;32.15;;
8710;SDS011;4392;47.400;8.062;2022-07-06T14:33:15;34.47;;;32.55;;
8710;SDS011;4392;47.400;8.062;2022-07-06T14:35:45;35.92;;;34.13;;
8710;SDS011;4392;47.400;8.062;2022-07-06T14:38:13;33.88;;;32.28;;
8710;SDS011;4392;47.400;8.062;2022-07-06T14:40:39;34.15;;;32.35;;
8710;SDS011;4392;47.400;8.062;2022-07-06T14:43:05;34.42;;;32.42;;
8710;SDS011;4392;47.400;8.062;2022-07-06T14:45:31;33.65;;;32.25;;
8710;SDS011;4392;47.400;8.062;2022-07-06T14:47:57;35.70;;;33.97;;
8710;SDS011;4392;47.400;8.062;2022-07-06T14:50:23;33.45;;;32.00;;
8710;SDS011;4392;47.400;8.062;2022-07-06T14:52:49;33.67;;;32.17;;
8710;SDS011;4392;47.400;8.062;2022-07-06T14:55:15;34.33;;;32.58;;
8710;SDS011;4392;47.400;8.062;2022-07-06T14:57:41;34.45;;;32.95;;
8710;SDS011;4392;47.400;8.062;2022-07-06T15:00:07;36.67;;;34.88;;